sensor_id;sensor_type;location;lat;lon;timestamp;P1;durP1;ratioP1;P2;durP2;ratioP2
77359;SDS011;66426;51.454;7.266;2023-01-25T00:00:08;15.60;;;7.57;;
77359;SDS011;66426;51.454;7.266;2023-01-25T00:01:10;11.85;;;6.78;;
77359;SDS011;66426;51.454;7.266;2023-01-25T00:02:11;12.32;;;6.80;;
77359;SDS011;66426;51.454;7.266;2023-01-25T00:03:13;11.00;;;6.63;;
77359;SDS011;66426;51.454;7.266;2023-01-25T00:04:14;13.57;;;7.40;;
77359;SDS011;66426;51.454;7.266;2023-01-25T00:05:15;13.70;;;7.72;;
77359;SDS011;66426;51.454;7.266;2023-01-25T00:06:16;10.95;;;7.40;;
77359;SDS011;66426;51.454;7.266;2023-01-25T00:07:17;12.05;;;7.55;;
77359;SDS011;66426;51.454;7.266;2023-01-25T00:08:18;13.48;;;7.78;;
77359;SDS011;66426;51.454;7.266;2023-01-25T00:09:21;13.38;;;7.82;;
77359;SDS011;66426;51.454;7.266;2023-01-25T00:10:23;10.80;;;6.90;;
77359;SDS011;66426;51.454;7.266;2023-01-25T00:11:24;11.98;;;7.93;;
77359;SDS011;66426;51.454;7.266;2023-01-25T00:12:25;10.40;;;6.00;;
77359;SDS011;66426;51.454;7.266;2023-01-25T00:13:26;12.05;;;7.38;;
77359;SDS011;66426;51.454;7.266;2023-01-25T00:14:27;12.90;;;7.38;;
77359;SDS011;66426;51.454;7.266;2023-01-25T00:15:28;11.73;;;6.97;;
77359;SDS011;66426;51.454;7.266;2023-01-25T00:16:29;12.38;;;7.20;;
77359;SDS011;66426;51.454;7.266;2023-01-25T00:17:30;12.63;;;7.22;;
77359;SDS011;66426;51.454;7.266;2023-01-25T00:18:33;12.23;;;7.40;;
77359;SDS011;66426;51.454;7.266;2023-01-25T00:19:34;12.63;;;7.38;;
77359;SDS011;66426;51.454;7.266;2023-01-25T00:20:35;12.65;;;7.60;;
77359;SDS011;66426;51.454;7.266;2023-01-25T00:21:36;13.45;;;7.35;;
77359;SDS011;66426;51.454;7.266;2023-01-25T00:22:37;12.40;;;7.50;;
77359;SDS011;66426;51.454;7.266;2023-01-25T00:23:38;12.30;;;7.38;;
77359;SDS011;66426;51.454;7.266;2023-01-25T00:24:39;13.30;;;7.32;;
77359;SDS011;66426;51.454;7.266;2023-01-25T00:25:40;12.75;;;7.80;;
77359;SDS011;66426;51.454;7.266;2023-01-25T00:26:41;11.70;;;7.05;;
77359;SDS011;66426;51.454;7.266;2023-01-25T00:27:45;11.43;;;7.25;;
77359;SDS011;66426;51.454;7.266;2023-01-25T00:28:47;12.25;;;7.68;;
77359;SDS011;66426;51.454;7.266;2023-01-25T00:31:49;11.23;;;6.95;;
77359;SDS011;66426;51.454;7.266;2023-01-25T00:33:32;13.57;;;7.03;;
77359;SDS011;66426;51.454;7.266;2023-01-25T00:34:57;13.02;;;7.32;;
77359;SDS011;66426;51.454;7.266;2023-01-25T00:36:27;12.75;;;7.88;;
77359;SDS011;66426;51.454;7.266;2023-01-25T00:37:35;12.63;;;7.15;;
77359;SDS011;66426;51.454;7.266;2023-01-25T00:38:38;13.45;;;6.68;;
77359;SDS011;66426;51.454;7.266;2023-01-25T00:39:39;15.55;;;8.43;;
77359;SDS011;66426;51.454;7.266;2023-01-25T00:40:40;13.30;;;7.13;;
77359;SDS011;66426;51.454;7.266;2023-01-25T00:41:41;12.35;;;7.57;;
77359;SDS011;66426;51.454;7.266;2023-01-25T00:42:42;12.63;;;7.57;;
77359;SDS011;66426;51.454;7.266;2023-01-25T00:43:43;12.68;;;7.32;;
77359;SDS011;66426;51.454;7.266;2023-01-25T00:44:44;13.57;;;7.75;;
77359;SDS011;66426;51.454;7.266;2023-01-25T00:45:45;11.50;;;7.35;;
77359;SDS011;66426;51.454;7.266;2023-01-25T00:46:45;12.70;;;7.65;;
77359;SDS011;66426;51.454;7.266;2023-01-25T00:47:46;13.30;;;7.82;;
77359;SDS011;66426;51.454;7.266;2023-01-25T00:48:48;11.68;;;7.18;;
77359;SDS011;66426;51.454;7.266;2023-01-25T00:49:52;13.18;;;7.95;;
77359;SDS011;66426;51.454;7.266;2023-01-25T00:50:53;13.95;;;7.63;;
77359;SDS011;66426;51.454;7.266;2023-01-25T00:51:54;12.70;;;7.13;;
77359;SDS011;66426;51.454;7.266;2023-01-25T00:52:57;12.68;;;7.53;;
77359;SDS011;66426;51.454;7.266;2023-01-25T00:53:58;12.85;;;8.15;;
77359;SDS011;66426;51.454;7.266;2023-01-25T00:54:59;12.52;;;7.18;;
77359;SDS011;66426;51.454;7.266;2023-01-25T00:55:59;13.98;;;7.80;;
77359;SDS011;66426;51.454;7.266;2023-01-25T00:57:00;12.70;;;7.43;;
77359;SDS011;66426;51.454;7.266;2023-01-25T00:58:01;13.30;;;7.10;;
77359;SDS011;66426;51.454;7.266;2023-01-25T00:59:01;13.38;;;7.60;;
77359;SDS011;66426;51.454;7.266;2023-01-25T01:00:03;13.10;;;7.93;;
77359;SDS011;66426;51.454;7.266;2023-01-25T01:01:03;13.35;;;7.47;;
77359;SDS011;66426;51.454;7.266;2023-01-25T01:02:04;13.93;;;7.78;;
77359;SDS011;66426;51.454;7.266;2023-01-25T01:03:05;14.40;;;7.95;;
77359;SDS011;66426;51.454;7.266;2023-01-25T01:04:07;15.23;;;7.43;;
77359;SDS011;66426;51.454;7.266;2023-01-25T01:05:08;13.80;;;7.50;;
77359;SDS011;66426;51.454;7.266;2023-01-25T01:06:09;13.15;;;7.40;;
77359;SDS011;66426;51.454;7.266;2023-01-25T01:07:44;13.90;;;7.38;;
77359;SDS011;66426;51.454;7.266;2023-01-25T01:09:03;14.80;;;7.82;;
77359;SDS011;66426;51.454;7.266;2023-01-25T01:10:22;11.50;;;7.07;;
77359;SDS011;66426;51.454;7.266;2023-01-25T01:11:23;13.80;;;7.72;;
77359;SDS011;66426;51.454;7.266;2023-01-25T01:12:24;12.65;;;7.50;;
77359;SDS011;66426;51.454;7.266;2023-01-25T01:13:24;18.48;;;7.88;;
77359;SDS011;66426;51.454;7.266;2023-01-25T01:14:26;15.07;;;8.00;;
77359;SDS011;66426;51.454;7.266;2023-01-25T01:15:27;14.45;;;7.78;;
77359;SDS011;66426;51.454;7.266;2023-01-25T01:16:28;15.63;;;8.45;;
77359;SDS011;66426;51.454;7.266;2023-01-25T01:17:46;15.60;;;8.18;;
77359;SDS011;66426;51.454;7.266;2023-01-25T01:18:47;13.98;;;7.78;;
77359;SDS011;66426;51.454;7.266;2023-01-25T01:19:49;14.55;;;8.18;;
77359;SDS011;66426;51.454;7.266;2023-01-25T01:20:50;14.10;;;7.90;;
77359;SDS011;66426;51.454;7.266;2023-01-25T01:21:51;13.77;;;7.78;;
77359;SDS011;66426;51.454;7.266;2023-01-25T01:22:51;13.57;;;7.97;;
77359;SDS011;66426;51.454;7.266;2023-01-25T01:23:54;14.00;;;7.95;;
77359;SDS011;66426;51.454;7.266;2023-01-25T01:24:55;16.63;;;8.00;;
77359;SDS011;66426;51.454;7.266;2023-01-25T01:25:58;16.08;;;9.18;;
77359;SDS011;66426;51.454;7.266;2023-01-25T01:26:59;14.30;;;8.05;;
77359;SDS011;66426;51.454;7.266;2023-01-25T01:27:59;12.68;;;7.50;;
77359;SDS011;66426;51.454;7.266;2023-01-25T01:29:00;14.38;;;7.72;;
77359;SDS011;66426;51.454;7.266;2023-01-25T01:30:01;12.63;;;6.90;;
77359;SDS011;66426;51.454;7.266;2023-01-25T01:31:02;15.05;;;7.95;;
77359;SDS011;66426;51.454;7.266;2023-01-25T01:32:03;14.35;;;7.80;;
77359;SDS011;66426;51.454;7.266;2023-01-25T01:33:05;15.27;;;8.65;;
77359;SDS011;66426;51.454;7.266;2023-01-25T01:34:06;14.77;;;7.88;;
77359;SDS011;66426;51.454;7.266;2023-01-25T01:35:08;13.60;;;8.48;;
77359;SDS011;66426;51.454;7.266;2023-01-25T01:36:09;14.48;;;8.43;;
77359;SDS011;66426;51.454;7.266;2023-01-25T01:37:11;14.77;;;8.00;;
77359;SDS011;66426;51.454;7.266;2023-01-25T01:38:11;15.35;;;8.40;;
77359;SDS011;66426;51.454;7.266;2023-01-25T01:39:12;15.50;;;8.65;;
77359;SDS011;66426;51.454;7.266;2023-01-25T01:40:13;14.25;;;8.50;;
77359;SDS011;66426;51.454;7.266;2023-01-25T01:41:14;14.00;;;8.30;;
77359;SDS011;66426;51.454;7.266;2023-01-25T01:42:15;15.15;;;8.73;;
77359;SDS011;66426;51.454;7.266;2023-01-25T01:43:16;15.02;;;7.95;;
77359;SDS011;66426;51.454;7.266;2023-01-25T01:44:18;14.77;;;8.18;;
77359;SDS011;66426;51.454;7.266;2023-01-25T01:46:38;14.70;;;8.40;;
77359;SDS011;66426;51.454;7.266;2023-01-25T01:47:40;13.55;;;7.70;;
77359;SDS011;66426;51.454;7.266;2023-01-25T01:48:46;15.77;;;8.07;;
77359;SDS011;66426;51.454;7.266;2023-01-25T01:49:50;12.75;;;8.00;;
77359;SDS011;66426;51.454;7.266;2023-01-25T01:50:53;16.42;;;8.20;;
77359;SDS011;66426;51.454;7.266;2023-01-25T01:51:56;16.05;;;7.75;;
77359;SDS011;66426;51.454;7.266;2023-01-25T01:52:58;14.75;;;8.25;;
77359;SDS011;66426;51.454;7.266;2023-01-25T01:53:59;13.30;;;7.55;;
77359;SDS011;66426;51.454;7.266;2023-01-25T01:55:02;15.43;;;8.57;;
77359;SDS011;66426;51.454;7.266;2023-01-25T01:56:05;14.63;;;8.32;;
77359;SDS011;66426;51.454;7.266;2023-01-25T01:57:08;14.13;;;8.10;;
77359;SDS011;66426;51.454;7.266;2023-01-25T01:58:10;15.50;;;8.70;;
77359;SDS011;66426;51.454;7.266;2023-01-25T01:59:11;15.75;;;7.97;;
77359;SDS011;66426;51.454;7.266;2023-01-25T02:00:13;16.02;;;8.02;;
77359;SDS011;66426;51.454;7.266;2023-01-25T02:01:14;16.23;;;8.55;;
77359;SDS011;66426;51.454;7.266;2023-01-25T02:02:16;13.30;;;7.70;;
77359;SDS011;66426;51.454;7.266;2023-01-25T02:03:17;15.65;;;8.23;;
77359;SDS011;66426;51.454;7.266;2023-01-25T02:04:18;15.05;;;8.07;;
77359;SDS011;66426;51.454;7.266;2023-01-25T02:05:21;14.02;;;7.80;;
77359;SDS011;66426;51.454;7.266;2023-01-25T02:06:27;14.93;;;8.05;;
77359;SDS011;66426;51.454;7.266;2023-01-25T02:07:31;15.90;;;8.15;;
77359;SDS011;66426;51.454;7.266;2023-01-25T02:08:33;12.15;;;6.85;;
77359;SDS011;66426;51.454;7.266;2023-01-25T02:09:36;15.35;;;7.85;;
77359;SDS011;66426;51.454;7.266;2023-01-25T02:10:36;15.85;;;8.88;;
77359;SDS011;66426;51.454;7.266;2023-01-25T02:11:37;14.10;;;8.02;;
77359;SDS011;66426;51.454;7.266;2023-01-25T02:12:38;14.50;;;7.85;;
77359;SDS011;66426;51.454;7.266;2023-01-25T02:13:40;13.50;;;7.70;;
77359;SDS011;66426;51.454;7.266;2023-01-25T02:14:43;14.20;;;8.07;;
77359;SDS011;66426;51.454;7.266;2023-01-25T02:15:46;12.77;;;7.45;;
77359;SDS011;66426;51.454;7.266;2023-01-25T02:16:48;14.02;;;8.48;;
77359;SDS011;66426;51.454;7.266;2023-01-25T02:17:49;17.00;;;8.40;;
77359;SDS011;66426;51.454;7.266;2023-01-25T02:18:50;15.15;;;8.20;;
77359;SDS011;66426;51.454;7.266;2023-01-25T02:19:54;14.02;;;7.57;;
77359;SDS011;66426;51.454;7.266;2023-01-25T02:20:57;15.93;;;8.48;;
77359;SDS011;66426;51.454;7.266;2023-01-25T02:22:00;13.40;;;7.88;;
77359;SDS011;66426;51.454;7.266;2023-01-25T02:23:08;14.25;;;7.55;;
77359;SDS011;66426;51.454;7.266;2023-01-25T02:24:13;13.80;;;7.78;;
77359;SDS011;66426;51.454;7.266;2023-01-25T02:25:17;15.15;;;8.60;;
77359;SDS011;66426;51.454;7.266;2023-01-25T02:26:18;15.73;;;8.13;;
77359;SDS011;66426;51.454;7.266;2023-01-25T02:27:19;18.33;;;8.68;;
77359;SDS011;66426;51.454;7.266;2023-01-25T02:28:20;14.93;;;8.45;;
77359;SDS011;66426;51.454;7.266;2023-01-25T02:29:22;15.52;;;8.60;;
77359;SDS011;66426;51.454;7.266;2023-01-25T02:30:24;15.20;;;8.30;;
77359;SDS011;66426;51.454;7.266;2023-01-25T02:31:25;16.20;;;8.23;;
77359;SDS011;66426;51.454;7.266;2023-01-25T02:32:25;14.32;;;8.48;;
77359;SDS011;66426;51.454;7.266;2023-01-25T02:33:26;13.60;;;8.15;;
77359;SDS011;66426;51.454;7.266;2023-01-25T02:34:27;14.30;;;8.00;;
77359;SDS011;66426;51.454;7.266;2023-01-25T02:35:35;14.63;;;8.00;;
77359;SDS011;66426;51.454;7.266;2023-01-25T02:36:36;17.38;;;8.50;;
77359;SDS011;66426;51.454;7.266;2023-01-25T02:37:37;16.25;;;7.97;;
77359;SDS011;66426;51.454;7.266;2023-01-25T02:38:38;15.68;;;8.30;;
77359;SDS011;66426;51.454;7.266;2023-01-25T02:39:39;16.55;;;8.43;;
77359;SDS011;66426;51.454;7.266;2023-01-25T02:40:43;15.52;;;8.90;;
77359;SDS011;66426;51.454;7.266;2023-01-25T02:41:45;16.23;;;8.77;;
77359;SDS011;66426;51.454;7.266;2023-01-25T02:42:47;16.38;;;8.85;;
77359;SDS011;66426;51.454;7.266;2023-01-25T02:43:48;17.73;;;8.70;;
77359;SDS011;66426;51.454;7.266;2023-01-25T02:44:48;15.68;;;8.10;;
77359;SDS011;66426;51.454;7.266;2023-01-25T02:45:51;14.68;;;8.55;;
77359;SDS011;66426;51.454;7.266;2023-01-25T02:46:54;14.23;;;7.60;;
77359;SDS011;66426;51.454;7.266;2023-01-25T02:47:55;16.60;;;8.98;;
77359;SDS011;66426;51.454;7.266;2023-01-25T02:48:56;14.45;;;8.35;;
77359;SDS011;66426;51.454;7.266;2023-01-25T02:49:57;15.38;;;8.15;;
77359;SDS011;66426;51.454;7.266;2023-01-25T02:50:57;14.77;;;7.85;;
77359;SDS011;66426;51.454;7.266;2023-01-25T02:51:58;15.07;;;7.78;;
77359;SDS011;66426;51.454;7.266;2023-01-25T02:52:59;16.02;;;8.55;;
77359;SDS011;66426;51.454;7.266;2023-01-25T02:54:00;17.23;;;8.88;;
77359;SDS011;66426;51.454;7.266;2023-01-25T02:55:00;16.25;;;8.50;;
77359;SDS011;66426;51.454;7.266;2023-01-25T02:56:02;13.40;;;8.07;;
77359;SDS011;66426;51.454;7.266;2023-01-25T02:57:03;16.75;;;9.45;;
77359;SDS011;66426;51.454;7.266;2023-01-25T02:58:04;16.67;;;9.35;;
77359;SDS011;66426;51.454;7.266;2023-01-25T02:59:05;16.17;;;9.13;;
77359;SDS011;66426;51.454;7.266;2023-01-25T03:00:06;17.35;;;8.23;;
77359;SDS011;66426;51.454;7.266;2023-01-25T03:01:07;17.35;;;8.13;;
77359;SDS011;66426;51.454;7.266;2023-01-25T03:02:08;18.20;;;9.05;;
77359;SDS011;66426;51.454;7.266;2023-01-25T03:03:09;16.20;;;9.02;;
77359;SDS011;66426;51.454;7.266;2023-01-25T03:04:10;15.07;;;8.23;;
77359;SDS011;66426;51.454;7.266;2023-01-25T03:05:11;15.68;;;9.05;;
77359;SDS011;66426;51.454;7.266;2023-01-25T03:06:11;14.43;;;7.78;;
77359;SDS011;66426;51.454;7.266;2023-01-25T03:07:12;16.42;;;8.45;;
77359;SDS011;66426;51.454;7.266;2023-01-25T03:08:13;15.73;;;8.60;;
77359;SDS011;66426;51.454;7.266;2023-01-25T03:09:13;15.82;;;8.45;;
77359;SDS011;66426;51.454;7.266;2023-01-25T03:10:14;15.73;;;8.57;;
77359;SDS011;66426;51.454;7.266;2023-01-25T03:11:16;15.02;;;8.52;;
77359;SDS011;66426;51.454;7.266;2023-01-25T03:12:17;15.45;;;8.63;;
77359;SDS011;66426;51.454;7.266;2023-01-25T03:13:17;17.27;;;8.18;;
77359;SDS011;66426;51.454;7.266;2023-01-25T03:14:18;17.48;;;8.60;;
77359;SDS011;66426;51.454;7.266;2023-01-25T03:15:19;14.95;;;7.88;;
77359;SDS011;66426;51.454;7.266;2023-01-25T03:16:20;17.58;;;8.40;;
77359;SDS011;66426;51.454;7.266;2023-01-25T03:17:20;14.98;;;8.65;;
77359;SDS011;66426;51.454;7.266;2023-01-25T03:18:21;17.58;;;9.20;;
77359;SDS011;66426;51.454;7.266;2023-01-25T03:19:22;17.40;;;9.25;;
77359;SDS011;66426;51.454;7.266;2023-01-25T03:20:22;15.25;;;8.18;;
77359;SDS011;66426;51.454;7.266;2023-01-25T03:21:25;15.90;;;8.75;;
77359;SDS011;66426;51.454;7.266;2023-01-25T03:22:26;16.80;;;9.13;;
77359;SDS011;66426;51.454;7.266;2023-01-25T03:23:26;16.20;;;9.13;;
77359;SDS011;66426;51.454;7.266;2023-01-25T03:24:27;15.02;;;8.57;;
77359;SDS011;66426;51.454;7.266;2023-01-25T03:25:28;13.57;;;8.10;;
77359;SDS011;66426;51.454;7.266;2023-01-25T03:26:30;16.67;;;8.68;;
77359;SDS011;66426;51.454;7.266;2023-01-25T03:27:31;14.93;;;8.50;;
77359;SDS011;66426;51.454;7.266;2023-01-25T03:28:31;17.50;;;9.55;;
77359;SDS011;66426;51.454;7.266;2023-01-25T03:29:32;16.90;;;9.25;;
77359;SDS011;66426;51.454;7.266;2023-01-25T03:30:33;16.15;;;8.48;;
77359;SDS011;66426;51.454;7.266;2023-01-25T03:31:33;15.07;;;8.90;;
77359;SDS011;66426;51.454;7.266;2023-01-25T03:32:34;17.90;;;9.30;;
77359;SDS011;66426;51.454;7.266;2023-01-25T03:33:35;15.07;;;8.23;;
77359;SDS011;66426;51.454;7.266;2023-01-25T03:34:36;15.80;;;8.50;;
77359;SDS011;66426;51.454;7.266;2023-01-25T03:35:36;16.92;;;9.30;;
77359;SDS011;66426;51.454;7.266;2023-01-25T03:36:37;18.52;;;9.13;;
77359;SDS011;66426;51.454;7.266;2023-01-25T03:37:38;15.82;;;9.02;;
77359;SDS011;66426;51.454;7.266;2023-01-25T03:38:38;14.77;;;8.43;;
77359;SDS011;66426;51.454;7.266;2023-01-25T03:39:39;16.05;;;9.27;;
77359;SDS011;66426;51.454;7.266;2023-01-25T03:40:40;14.63;;;8.13;;
77359;SDS011;66426;51.454;7.266;2023-01-25T03:41:42;16.40;;;8.43;;
77359;SDS011;66426;51.454;7.266;2023-01-25T03:42:43;15.52;;;8.48;;
77359;SDS011;66426;51.454;7.266;2023-01-25T03:43:43;14.85;;;8.65;;
77359;SDS011;66426;51.454;7.266;2023-01-25T03:44:44;19.30;;;9.20;;
77359;SDS011;66426;51.454;7.266;2023-01-25T03:45:45;17.05;;;9.05;;
77359;SDS011;66426;51.454;7.266;2023-01-25T03:46:45;16.02;;;8.73;;
77359;SDS011;66426;51.454;7.266;2023-01-25T03:47:46;15.60;;;8.25;;
77359;SDS011;66426;51.454;7.266;2023-01-25T03:48:47;16.80;;;9.25;;
77359;SDS011;66426;51.454;7.266;2023-01-25T03:49:47;17.25;;;8.98;;
77359;SDS011;66426;51.454;7.266;2023-01-25T03:50:49;16.85;;;8.52;;
77359;SDS011;66426;51.454;7.266;2023-01-25T03:51:50;15.80;;;8.63;;
77359;SDS011;66426;51.454;7.266;2023-01-25T03:52:50;17.23;;;8.90;;
77359;SDS011;66426;51.454;7.266;2023-01-25T03:53:58;15.82;;;8.60;;
77359;SDS011;66426;51.454;7.266;2023-01-25T03:54:58;15.07;;;7.93;;
77359;SDS011;66426;51.454;7.266;2023-01-25T03:56:00;16.60;;;8.55;;
77359;SDS011;66426;51.454;7.266;2023-01-25T03:57:02;15.23;;;7.88;;
77359;SDS011;66426;51.454;7.266;2023-01-25T03:58:03;17.70;;;8.45;;
77359;SDS011;66426;51.454;7.266;2023-01-25T03:59:04;17.25;;;8.43;;
77359;SDS011;66426;51.454;7.266;2023-01-25T04:00:05;20.45;;;9.75;;
77359;SDS011;66426;51.454;7.266;2023-01-25T04:01:06;18.33;;;8.65;;
77359;SDS011;66426;51.454;7.266;2023-01-25T04:02:07;18.02;;;9.43;;
77359;SDS011;66426;51.454;7.266;2023-01-25T04:03:07;17.55;;;8.98;;
77359;SDS011;66426;51.454;7.266;2023-01-25T04:04:08;16.23;;;8.32;;
77359;SDS011;66426;51.454;7.266;2023-01-25T04:05:09;16.95;;;8.27;;
77359;SDS011;66426;51.454;7.266;2023-01-25T04:06:09;16.58;;;8.15;;
77359;SDS011;66426;51.454;7.266;2023-01-25T04:07:10;16.00;;;8.02;;
77359;SDS011;66426;51.454;7.266;2023-01-25T04:08:11;14.48;;;7.45;;
77359;SDS011;66426;51.454;7.266;2023-01-25T04:09:12;15.02;;;8.30;;
77359;SDS011;66426;51.454;7.266;2023-01-25T04:10:14;15.40;;;8.10;;
77359;SDS011;66426;51.454;7.266;2023-01-25T04:11:14;16.60;;;8.60;;
77359;SDS011;66426;51.454;7.266;2023-01-25T04:12:17;17.77;;;9.15;;
77359;SDS011;66426;51.454;7.266;2023-01-25T04:13:17;16.73;;;8.90;;
77359;SDS011;66426;51.454;7.266;2023-01-25T04:14:18;19.63;;;8.38;;
77359;SDS011;66426;51.454;7.266;2023-01-25T04:15:19;19.00;;;9.77;;
77359;SDS011;66426;51.454;7.266;2023-01-25T04:16:19;17.23;;;8.82;;
77359;SDS011;66426;51.454;7.266;2023-01-25T04:17:20;18.38;;;8.52;;
77359;SDS011;66426;51.454;7.266;2023-01-25T04:18:21;22.77;;;8.70;;
77359;SDS011;66426;51.454;7.266;2023-01-25T04:19:22;16.20;;;8.35;;
77359;SDS011;66426;51.454;7.266;2023-01-25T04:20:22;19.88;;;9.45;;
77359;SDS011;66426;51.454;7.266;2023-01-25T04:21:23;16.35;;;8.50;;
77359;SDS011;66426;51.454;7.266;2023-01-25T04:22:24;19.33;;;8.55;;
77359;SDS011;66426;51.454;7.266;2023-01-25T04:23:25;16.55;;;8.05;;
77359;SDS011;66426;51.454;7.266;2023-01-25T04:24:25;17.70;;;7.85;;
77359;SDS011;66426;51.454;7.266;2023-01-25T04:25:26;16.52;;;8.55;;
77359;SDS011;66426;51.454;7.266;2023-01-25T04:26:27;16.80;;;7.82;;
77359;SDS011;66426;51.454;7.266;2023-01-25T04:27:29;21.05;;;9.32;;
77359;SDS011;66426;51.454;7.266;2023-01-25T04:28:29;17.77;;;8.57;;
77359;SDS011;66426;51.454;7.266;2023-01-25T04:29:31;15.82;;;8.00;;
77359;SDS011;66426;51.454;7.266;2023-01-25T04:30:31;16.50;;;8.10;;
77359;SDS011;66426;51.454;7.266;2023-01-25T04:31:32;17.92;;;7.55;;
77359;SDS011;66426;51.454;7.266;2023-01-25T04:32:33;16.33;;;7.07;;
77359;SDS011;66426;51.454;7.266;2023-01-25T04:33:34;19.77;;;7.97;;
77359;SDS011;66426;51.454;7.266;2023-01-25T04:34:34;15.07;;;6.60;;
77359;SDS011;66426;51.454;7.266;2023-01-25T04:35:35;15.40;;;6.63;;
77359;SDS011;66426;51.454;7.266;2023-01-25T04:36:36;17.48;;;7.20;;
77359;SDS011;66426;51.454;7.266;2023-01-25T04:37:36;17.15;;;7.47;;
77359;SDS011;66426;51.454;7.266;2023-01-25T04:38:37;18.25;;;7.97;;
77359;SDS011;66426;51.454;7.266;2023-01-25T04:39:38;16.77;;;7.18;;
77359;SDS011;66426;51.454;7.266;2023-01-25T04:40:39;15.88;;;7.53;;
77359;SDS011;66426;51.454;7.266;2023-01-25T04:41:40;16.90;;;7.20;;
77359;SDS011;66426;51.454;7.266;2023-01-25T04:42:42;16.77;;;7.13;;
77359;SDS011;66426;51.454;7.266;2023-01-25T04:43:42;16.02;;;7.70;;
77359;SDS011;66426;51.454;7.266;2023-01-25T04:44:43;17.38;;;8.00;;
77359;SDS011;66426;51.454;7.266;2023-01-25T04:45:44;17.73;;;7.55;;
77359;SDS011;66426;51.454;7.266;2023-01-25T04:46:45;17.00;;;7.65;;
77359;SDS011;66426;51.454;7.266;2023-01-25T04:47:45;20.20;;;7.95;;
77359;SDS011;66426;51.454;7.266;2023-01-25T04:48:46;18.20;;;7.85;;
77359;SDS011;66426;51.454;7.266;2023-01-25T04:49:47;19.20;;;7.80;;
77359;SDS011;66426;51.454;7.266;2023-01-25T04:50:47;18.10;;;7.40;;
77359;SDS011;66426;51.454;7.266;2023-01-25T04:51:48;19.92;;;7.25;;
77359;SDS011;66426;51.454;7.266;2023-01-25T04:52:49;17.90;;;8.07;;
77359;SDS011;66426;51.454;7.266;2023-01-25T04:53:49;19.02;;;6.50;;
77359;SDS011;66426;51.454;7.266;2023-01-25T04:54:50;17.88;;;7.13;;
77359;SDS011;66426;51.454;7.266;2023-01-25T04:55:51;20.48;;;7.70;;
77359;SDS011;66426;51.454;7.266;2023-01-25T04:56:51;17.80;;;7.75;;
77359;SDS011;66426;51.454;7.266;2023-01-25T04:57:53;19.38;;;7.50;;
77359;SDS011;66426;51.454;7.266;2023-01-25T04:58:54;18.00;;;7.63;;
77359;SDS011;66426;51.454;7.266;2023-01-25T04:59:55;18.65;;;7.03;;
77359;SDS011;66426;51.454;7.266;2023-01-25T05:00:58;18.33;;;7.13;;
77359;SDS011;66426;51.454;7.266;2023-01-25T05:01:59;15.25;;;6.70;;
77359;SDS011;66426;51.454;7.266;2023-01-25T05:02:59;19.75;;;7.40;;
77359;SDS011;66426;51.454;7.266;2023-01-25T05:04:00;18.27;;;6.88;;
77359;SDS011;66426;51.454;7.266;2023-01-25T05:05:01;18.33;;;7.32;;
77359;SDS011;66426;51.454;7.266;2023-01-25T05:06:02;17.25;;;7.28;;
77359;SDS011;66426;51.454;7.266;2023-01-25T05:07:02;17.63;;;7.68;;
77359;SDS011;66426;51.454;7.266;2023-01-25T05:08:03;18.38;;;6.53;;
77359;SDS011;66426;51.454;7.266;2023-01-25T05:09:04;17.15;;;6.50;;
77359;SDS011;66426;51.454;7.266;2023-01-25T05:10:05;19.67;;;6.78;;
77359;SDS011;66426;51.454;7.266;2023-01-25T05:11:06;17.52;;;7.40;;
77359;SDS011;66426;51.454;7.266;2023-01-25T05:12:07;17.67;;;6.55;;
77359;SDS011;66426;51.454;7.266;2023-01-25T05:13:12;16.48;;;6.85;;
77359;SDS011;66426;51.454;7.266;2023-01-25T05:14:13;18.02;;;7.13;;
77359;SDS011;66426;51.454;7.266;2023-01-25T05:15:13;18.65;;;6.95;;
77359;SDS011;66426;51.454;7.266;2023-01-25T05:16:14;17.75;;;7.72;;
77359;SDS011;66426;51.454;7.266;2023-01-25T05:17:15;17.20;;;7.28;;
77359;SDS011;66426;51.454;7.266;2023-01-25T05:18:16;16.77;;;6.85;;
77359;SDS011;66426;51.454;7.266;2023-01-25T05:19:17;20.15;;;7.20;;
77359;SDS011;66426;51.454;7.266;2023-01-25T05:20:17;19.65;;;7.38;;
77359;SDS011;66426;51.454;7.266;2023-01-25T05:21:18;16.00;;;6.80;;
77359;SDS011;66426;51.454;7.266;2023-01-25T05:22:37;19.38;;;7.20;;
77359;SDS011;66426;51.454;7.266;2023-01-25T05:23:38;21.10;;;7.28;;
77359;SDS011;66426;51.454;7.266;2023-01-25T05:24:39;18.40;;;7.13;;
77359;SDS011;66426;51.454;7.266;2023-01-25T05:25:41;14.70;;;6.47;;
77359;SDS011;66426;51.454;7.266;2023-01-25T05:27:01;18.58;;;7.10;;
77359;SDS011;66426;51.454;7.266;2023-01-25T05:28:05;21.10;;;7.60;;
77359;SDS011;66426;51.454;7.266;2023-01-25T05:29:07;20.83;;;7.45;;
77359;SDS011;66426;51.454;7.266;2023-01-25T05:30:09;17.27;;;7.28;;
77359;SDS011;66426;51.454;7.266;2023-01-25T05:31:09;20.45;;;7.20;;
77359;SDS011;66426;51.454;7.266;2023-01-25T05:32:11;20.48;;;7.32;;
77359;SDS011;66426;51.454;7.266;2023-01-25T05:33:12;18.75;;;7.65;;
77359;SDS011;66426;51.454;7.266;2023-01-25T05:34:12;18.42;;;7.18;;
77359;SDS011;66426;51.454;7.266;2023-01-25T05:35:13;17.95;;;7.03;;
77359;SDS011;66426;51.454;7.266;2023-01-25T05:36:14;21.17;;;7.13;;
77359;SDS011;66426;51.454;7.266;2023-01-25T05:37:15;17.63;;;6.82;;
77359;SDS011;66426;51.454;7.266;2023-01-25T05:38:16;17.33;;;7.43;;
77359;SDS011;66426;51.454;7.266;2023-01-25T05:39:17;17.02;;;6.78;;
77359;SDS011;66426;51.454;7.266;2023-01-25T05:40:17;20.33;;;7.38;;
77359;SDS011;66426;51.454;7.266;2023-01-25T05:41:18;21.60;;;7.38;;
77359;SDS011;66426;51.454;7.266;2023-01-25T05:42:19;18.73;;;7.22;;
77359;SDS011;66426;51.454;7.266;2023-01-25T05:43:19;17.77;;;7.13;;
77359;SDS011;66426;51.454;7.266;2023-01-25T05:44:24;17.63;;;6.80;;
77359;SDS011;66426;51.454;7.266;2023-01-25T05:45:25;19.60;;;7.93;;
77359;SDS011;66426;51.454;7.266;2023-01-25T05:46:26;16.70;;;7.25;;
77359;SDS011;66426;51.454;7.266;2023-01-25T05:47:26;14.95;;;6.05;;
77359;SDS011;66426;51.454;7.266;2023-01-25T05:48:27;19.55;;;7.32;;
77359;SDS011;66426;51.454;7.266;2023-01-25T05:49:28;17.45;;;6.53;;
77359;SDS011;66426;51.454;7.266;2023-01-25T05:50:29;18.95;;;7.60;;
77359;SDS011;66426;51.454;7.266;2023-01-25T05:51:29;25.88;;;7.72;;
77359;SDS011;66426;51.454;7.266;2023-01-25T05:52:30;20.75;;;7.95;;
77359;SDS011;66426;51.454;7.266;2023-01-25T05:53:31;16.55;;;7.40;;
77359;SDS011;66426;51.454;7.266;2023-01-25T05:54:31;18.63;;;6.88;;
77359;SDS011;66426;51.454;7.266;2023-01-25T05:55:33;20.20;;;8.27;;
77359;SDS011;66426;51.454;7.266;2023-01-25T05:56:34;19.20;;;7.57;;
77359;SDS011;66426;51.454;7.266;2023-01-25T05:57:35;21.48;;;8.57;;
77359;SDS011;66426;51.454;7.266;2023-01-25T05:58:36;19.27;;;8.10;;
77359;SDS011;66426;51.454;7.266;2023-01-25T05:59:38;19.83;;;7.47;;
77359;SDS011;66426;51.454;7.266;2023-01-25T06:00:38;21.98;;;8.30;;
77359;SDS011;66426;51.454;7.266;2023-01-25T06:01:39;20.35;;;8.27;;
77359;SDS011;66426;51.454;7.266;2023-01-25T06:02:40;19.83;;;7.88;;
77359;SDS011;66426;51.454;7.266;2023-01-25T06:03:41;17.67;;;7.47;;
77359;SDS011;66426;51.454;7.266;2023-01-25T06:04:41;23.65;;;7.93;;
77359;SDS011;66426;51.454;7.266;2023-01-25T06:05:42;24.33;;;7.88;;
77359;SDS011;66426;51.454;7.266;2023-01-25T06:06:43;21.90;;;8.48;;
77359;SDS011;66426;51.454;7.266;2023-01-25T06:07:43;21.35;;;7.95;;
77359;SDS011;66426;51.454;7.266;2023-01-25T06:08:44;22.70;;;9.00;;
77359;SDS011;66426;51.454;7.266;2023-01-25T06:09:45;22.25;;;8.68;;